Archival Weather

Sydney Intl

Sydney, Australia (YSSY)

Report from: Sunday, March 19, 2023 5:30 AM AEDT
Current time: Thursday, April 25, 2024 5:28 AM AEST

Current weather – Weather history – Daily summaries
Weather forecast

Temperature22.0°C (71.6°F)
Dew point21.0°C (69.8°F)
Winds 7 kts (3.6 m/s, 8.1 mph) North-Northwest (340°)
Clouds Sky clear
Altimeter30.00 in.Hg (1016 mB)
Relative humidity94 %
Density altitude1,059 ft. (323 m)
Remarks Ceiling and visibility OK
Flight conditions Visual Meteorological Conditions
Raw dataYSSY 181830Z 34007KT CAVOK 22/21 Q1016
An error has occurred. This application may no longer respond until reloaded. Reload 🗙